Portada
METAR-TAF:

METAR-TAF

Aeroports :

Murray, Kentucky, Estats Units d'Amèrica

latitud: 36-39-52N, longitud: 088-22-22W, altitud: 176 m

Observació

L'informe es va fer fa 25 minuts, a les 17:35 UTC
Vent 10 kt del Sud
Temperatura 27°C
Humitat 58%
Pressió 1016 hPa
Visibilitat: 16.1 km
Cel clar

METAR: KCEY 261735Z AUTO 17010KT 10SM CLR 27/18 A2999 RMK AO1

Hora: 13:00 (18:00 UTC)


TAF: manca

Observacions i pronòstics meteorològics de més de 4000 aeroports (METAR i TAF).

Les estacions disponibles són els punts grocs i vermells al mapa.

Posi el ratolí al punt desitjat per veure el nom de l'estació.

Feu clic per veure les observacions i els pronòstics meteorològics.

Per canviar el mapa: feu clic els botons verds amb una creu de color negre per apropar; al botó verd amb un guió per allunyar la imatge; o en les fletxes verdes per a mapes adjacents.


METAR-TAF: